sensor_id;sensor_type;location;lat;lon;timestamp;temperature;humidity
32660;DHT22;19064;47.912;12.308;2024-01-15T00:00:26;-2.30;99.90
32660;DHT22;19064;47.912;12.308;2024-01-15T00:02:53;-2.20;99.90
32660;DHT22;19064;47.912;12.308;2024-01-15T00:05:20;-2.20;99.90
32660;DHT22;19064;47.912;12.308;2024-01-15T00:07:47;-2.20;99.90
32660;DHT22;19064;47.912;12.308;2024-01-15T00:10:16;-2.10;99.90
32660;DHT22;19064;47.912;12.308;2024-01-15T00:12:43;-2.20;99.90
32660;DHT22;19064;47.912;12.308;2024-01-15T00:15:10;-2.20;99.90
32660;DHT22;19064;47.912;12.308;2024-01-15T00:17:37;-2.20;99.90
32660;DHT22;19064;47.912;12.308;2024-01-15T00:20:04;-2.20;99.90
32660;DHT22;19064;47.912;12.308;2024-01-15T00:22:31;-2.30;99.90
32660;DHT22;19064;47.912;12.308;2024-01-15T00:24:58;-2.20;99.90
32660;DHT22;19064;47.912;12.308;2024-01-15T00:27:26;-2.20;99.90
32660;DHT22;19064;47.912;12.308;2024-01-15T00:29:53;-2.30;99.90
32660;DHT22;19064;47.912;12.308;2024-01-15T00:32:20;-2.40;99.90
32660;DHT22;19064;47.912;12.308;2024-01-15T00:34:47;-2.40;99.90
32660;DHT22;19064;47.912;12.308;2024-01-15T00:37:13;-2.50;99.90
32660;DHT22;19064;47.912;12.308;2024-01-15T00:39:40;-2.70;99.90
32660;DHT22;19064;47.912;12.308;2024-01-15T00:42:07;-2.70;99.90
32660;DHT22;19064;47.912;12.308;2024-01-15T00:44:36;-2.60;99.90
32660;DHT22;19064;47.912;12.308;2024-01-15T00:47:03;-2.80;99.90
32660;DHT22;19064;47.912;12.308;2024-01-15T00:49:30;-2.90;99.90
32660;DHT22;19064;47.912;12.308;2024-01-15T00:51:57;-2.90;99.90
32660;DHT22;19064;47.912;12.308;2024-01-15T00:54:23;-2.90;99.90
32660;DHT22;19064;47.912;12.308;2024-01-15T00:56:50;-3.10;99.90
32660;DHT22;19064;47.912;12.308;2024-01-15T00:59:17;-3.00;99.90
32660;DHT22;19064;47.912;12.308;2024-01-15T01:01:47;-3.10;99.90
32660;DHT22;19064;47.912;12.308;2024-01-15T01:04:14;-3.20;99.90
32660;DHT22;19064;47.912;12.308;2024-01-15T01:06:41;-3.30;99.90
32660;DHT22;19064;47.912;12.308;2024-01-15T01:09:08;-3.40;99.90
32660;DHT22;19064;47.912;12.308;2024-01-15T01:11:34;-3.50;99.90
32660;DHT22;19064;47.912;12.308;2024-01-15T01:14:01;-3.50;99.90
32660;DHT22;19064;47.912;12.308;2024-01-15T01:16:28;-3.50;99.90
32660;DHT22;19064;47.912;12.308;2024-01-15T01:18:57;-3.50;99.90
32660;DHT22;19064;47.912;12.308;2024-01-15T01:21:24;-3.20;99.90
32660;DHT22;19064;47.912;12.308;2024-01-15T01:23:51;-3.00;99.90
32660;DHT22;19064;47.912;12.308;2024-01-15T01:26:18;-2.90;99.90
32660;DHT22;19064;47.912;12.308;2024-01-15T01:28:44;-2.70;99.90
32660;DHT22;19064;47.912;12.308;2024-01-15T01:31:11;-2.50;99.90
32660;DHT22;19064;47.912;12.308;2024-01-15T01:33:39;-2.40;99.90
32660;DHT22;19064;47.912;12.308;2024-01-15T01:36:09;-2.30;99.90
32660;DHT22;19064;47.912;12.308;2024-01-15T01:38:36;-2.30;99.90
32660;DHT22;19064;47.912;12.308;2024-01-15T01:41:03;-2.30;99.90
32660;DHT22;19064;47.912;12.308;2024-01-15T01:43:29;-2.30;99.90
32660;DHT22;19064;47.912;12.308;2024-01-15T01:45:57;-2.20;99.90
32660;DHT22;19064;47.912;12.308;2024-01-15T01:48:25;-2.00;99.90
32660;DHT22;19064;47.912;12.308;2024-01-15T01:50:52;-2.00;99.90
32660;DHT22;19064;47.912;12.308;2024-01-15T01:53:22;-2.00;99.90
32660;DHT22;19064;47.912;12.308;2024-01-15T01:55:50;-1.90;99.90
32660;DHT22;19064;47.912;12.308;2024-01-15T01:58:17;-1.80;99.90
32660;DHT22;19064;47.912;12.308;2024-01-15T02:00:45;-1.70;99.90
32660;DHT22;19064;47.912;12.308;2024-01-15T02:03:12;-1.60;99.90
32660;DHT22;19064;47.912;12.308;2024-01-15T02:05:39;-1.60;99.90
32660;DHT22;19064;47.912;12.308;2024-01-15T02:08:06;-1.50;99.90
32660;DHT22;19064;47.912;12.308;2024-01-15T02:10:34;-1.40;99.90
32660;DHT22;19064;47.912;12.308;2024-01-15T02:13:02;-1.40;99.90
32660;DHT22;19064;47.912;12.308;2024-01-15T02:15:29;-1.40;99.90
32660;DHT22;19064;47.912;12.308;2024-01-15T02:17:57;-1.30;99.90
32660;DHT22;19064;47.912;12.308;2024-01-15T02:20:24;-1.30;99.90
32660;DHT22;19064;47.912;12.308;2024-01-15T02:22:51;-1.30;99.90
32660;DHT22;19064;47.912;12.308;2024-01-15T02:25:19;-1.30;99.90
32660;DHT22;19064;47.912;12.308;2024-01-15T02:27:47;-1.30;99.90
32660;DHT22;19064;47.912;12.308;2024-01-15T02:30:14;-1.30;99.90
32660;DHT22;19064;47.912;12.308;2024-01-15T02:32:42;-1.40;99.90
32660;DHT22;19064;47.912;12.308;2024-01-15T02:35:08;-1.40;99.90
32660;DHT22;19064;47.912;12.308;2024-01-15T02:37:36;-1.40;99.90
32660;DHT22;19064;47.912;12.308;2024-01-15T02:40:03;-1.40;99.90
32660;DHT22;19064;47.912;12.308;2024-01-15T02:42:31;-1.40;99.90
32660;DHT22;19064;47.912;12.308;2024-01-15T02:44:58;-1.40;99.90
32660;DHT22;19064;47.912;12.308;2024-01-15T02:47:25;-1.40;99.90
32660;DHT22;19064;47.912;12.308;2024-01-15T02:49:51;-1.40;99.90
32660;DHT22;19064;47.912;12.308;2024-01-15T02:52:18;-1.40;99.90
32660;DHT22;19064;47.912;12.308;2024-01-15T02:54:45;-1.40;99.90
32660;DHT22;19064;47.912;12.308;2024-01-15T02:57:12;-1.40;99.90
32660;DHT22;19064;47.912;12.308;2024-01-15T02:59:40;-1.40;99.90
32660;DHT22;19064;47.912;12.308;2024-01-15T03:02:07;-1.40;99.90
32660;DHT22;19064;47.912;12.308;2024-01-15T03:04:33;-1.40;99.90
32660;DHT22;19064;47.912;12.308;2024-01-15T03:07:00;-1.40;99.90
32660;DHT22;19064;47.912;12.308;2024-01-15T03:09:27;-1.40;99.90
32660;DHT22;19064;47.912;12.308;2024-01-15T03:11:54;-1.40;99.90
32660;DHT22;19064;47.912;12.308;2024-01-15T03:14:21;-1.30;99.90
32660;DHT22;19064;47.912;12.308;2024-01-15T03:16:51;-1.40;99.90
32660;DHT22;19064;47.912;12.308;2024-01-15T03:19:18;-1.30;99.90
32660;DHT22;19064;47.912;12.308;2024-01-15T03:21:45;-1.40;99.90
32660;DHT22;19064;47.912;12.308;2024-01-15T03:24:12;-1.30;99.90
32660;DHT22;19064;47.912;12.308;2024-01-15T03:26:38;-1.30;99.90
32660;DHT22;19064;47.912;12.308;2024-01-15T03:29:05;-1.30;99.90
32660;DHT22;19064;47.912;12.308;2024-01-15T03:31:32;-1.30;99.90
32660;DHT22;19064;47.912;12.308;2024-01-15T03:34:01;-1.40;99.90
32660;DHT22;19064;47.912;12.308;2024-01-15T03:36:28;-1.30;99.90
32660;DHT22;19064;47.912;12.308;2024-01-15T03:38:55;-1.30;99.90
32660;DHT22;19064;47.912;12.308;2024-01-15T03:41:22;-1.40;99.90
32660;DHT22;19064;47.912;12.308;2024-01-15T03:43:49;-1.30;99.90
32660;DHT22;19064;47.912;12.308;2024-01-15T03:46:16;-1.40;99.90
32660;DHT22;19064;47.912;12.308;2024-01-15T03:48:43;-1.40;99.90
32660;DHT22;19064;47.912;12.308;2024-01-15T03:51:11;-1.30;99.90
32660;DHT22;19064;47.912;12.308;2024-01-15T03:53:38;-1.40;99.90
32660;DHT22;19064;47.912;12.308;2024-01-15T03:56:05;-1.40;99.90
32660;DHT22;19064;47.912;12.308;2024-01-15T03:58:31;-1.40;99.90
32660;DHT22;19064;47.912;12.308;2024-01-15T04:00:59;-1.40;99.90
32660;DHT22;19064;47.912;12.308;2024-01-15T04:03:25;-1.40;99.90
32660;DHT22;19064;47.912;12.308;2024-01-15T04:05:52;-1.30;99.90
32660;DHT22;19064;47.912;12.308;2024-01-15T04:08:21;-1.40;99.90
32660;DHT22;19064;47.912;12.308;2024-01-15T04:10:48;-1.40;99.90
32660;DHT22;19064;47.912;12.308;2024-01-15T04:13:15;-1.40;99.90
32660;DHT22;19064;47.912;12.308;2024-01-15T04:15:41;-1.30;99.90
32660;DHT22;19064;47.912;12.308;2024-01-15T04:18:08;-1.30;99.90
32660;DHT22;19064;47.912;12.308;2024-01-15T04:20:35;-1.30;99.90
32660;DHT22;19064;47.912;12.308;2024-01-15T04:23:02;-1.30;99.90
32660;DHT22;19064;47.912;12.308;2024-01-15T04:25:31;-1.30;99.90
32660;DHT22;19064;47.912;12.308;2024-01-15T04:27:58;-1.40;99.90
32660;DHT22;19064;47.912;12.308;2024-01-15T04:30:25;-1.40;99.90
32660;DHT22;19064;47.912;12.308;2024-01-15T04:32:51;-1.40;99.90
32660;DHT22;19064;47.912;12.308;2024-01-15T04:35:18;-1.40;99.90
32660;DHT22;19064;47.912;12.308;2024-01-15T04:37:45;-1.40;99.90
32660;DHT22;19064;47.912;12.308;2024-01-15T04:40:12;-1.40;99.90
32660;DHT22;19064;47.912;12.308;2024-01-15T04:42:41;-1.40;99.90
32660;DHT22;19064;47.912;12.308;2024-01-15T04:45:08;-1.30;99.90
32660;DHT22;19064;47.912;12.308;2024-01-15T04:47:35;-1.40;99.90
32660;DHT22;19064;47.912;12.308;2024-01-15T04:50:03;-1.40;99.90
32660;DHT22;19064;47.912;12.308;2024-01-15T04:52:30;-1.40;99.90
32660;DHT22;19064;47.912;12.308;2024-01-15T04:54:57;-1.40;99.90
32660;DHT22;19064;47.912;12.308;2024-01-15T04:57:23;-1.30;99.90
32660;DHT22;19064;47.912;12.308;2024-01-15T04:59:52;-1.30;99.90
32660;DHT22;19064;47.912;12.308;2024-01-15T05:02:18;-1.30;99.90
32660;DHT22;19064;47.912;12.308;2024-01-15T05:04:45;-1.30;99.90
32660;DHT22;19064;47.912;12.308;2024-01-15T05:07:12;-1.30;99.90
32660;DHT22;19064;47.912;12.308;2024-01-15T05:09:39;-1.30;99.90
32660;DHT22;19064;47.912;12.308;2024-01-15T05:12:06;-1.30;99.90
32660;DHT22;19064;47.912;12.308;2024-01-15T05:14:33;-1.20;99.90
32660;DHT22;19064;47.912;12.308;2024-01-15T05:17:01;-1.20;99.90
32660;DHT22;19064;47.912;12.308;2024-01-15T05:19:28;-1.20;99.90
32660;DHT22;19064;47.912;12.308;2024-01-15T05:21:54;-1.20;99.90
32660;DHT22;19064;47.912;12.308;2024-01-15T05:24:21;-1.20;99.90
32660;DHT22;19064;47.912;12.308;2024-01-15T05:26:48;-1.20;99.90
32660;DHT22;19064;47.912;12.308;2024-01-15T05:29:14;-1.20;99.90
32660;DHT22;19064;47.912;12.308;2024-01-15T05:31:41;-1.20;99.90
32660;DHT22;19064;47.912;12.308;2024-01-15T05:34:09;-1.20;99.90
32660;DHT22;19064;47.912;12.308;2024-01-15T05:36:36;-1.20;99.90
32660;DHT22;19064;47.912;12.308;2024-01-15T05:39:03;-1.10;99.90
32660;DHT22;19064;47.912;12.308;2024-01-15T05:41:30;-1.20;99.90
32660;DHT22;19064;47.912;12.308;2024-01-15T05:43:56;-1.10;99.90
32660;DHT22;19064;47.912;12.308;2024-01-15T05:46:23;-1.10;99.90
32660;DHT22;19064;47.912;12.308;2024-01-15T05:48:50;-1.10;99.90
32660;DHT22;19064;47.912;12.308;2024-01-15T05:51:18;-1.10;99.90
32660;DHT22;19064;47.912;12.308;2024-01-15T05:53:45;-1.10;99.90
32660;DHT22;19064;47.912;12.308;2024-01-15T05:56:11;-1.10;99.90
32660;DHT22;19064;47.912;12.308;2024-01-15T05:58:38;-1.10;99.90
32660;DHT22;19064;47.912;12.308;2024-01-15T06:01:06;-1.10;99.90
32660;DHT22;19064;47.912;12.308;2024-01-15T06:03:32;-1.10;99.90
32660;DHT22;19064;47.912;12.308;2024-01-15T06:05:59;-1.10;99.90
32660;DHT22;19064;47.912;12.308;2024-01-15T06:08:28;-1.10;99.90
32660;DHT22;19064;47.912;12.308;2024-01-15T06:10:56;-1.10;99.90
32660;DHT22;19064;47.912;12.308;2024-01-15T06:13:22;-1.10;99.90
32660;DHT22;19064;47.912;12.308;2024-01-15T06:15:49;-1.10;99.90
32660;DHT22;19064;47.912;12.308;2024-01-15T06:18:16;-1.00;99.90
32660;DHT22;19064;47.912;12.308;2024-01-15T06:20:43;-1.00;99.90
32660;DHT22;19064;47.912;12.308;2024-01-15T06:23:09;-1.00;99.90
32660;DHT22;19064;47.912;12.308;2024-01-15T06:25:38;-1.10;99.90
32660;DHT22;19064;47.912;12.308;2024-01-15T06:28:05;-1.00;99.90
32660;DHT22;19064;47.912;12.308;2024-01-15T06:30:32;-1.10;99.90
32660;DHT22;19064;47.912;12.308;2024-01-15T06:32:59;-1.10;99.90
32660;DHT22;19064;47.912;12.308;2024-01-15T06:35:25;-1.10;99.90
32660;DHT22;19064;47.912;12.308;2024-01-15T06:37:52;-1.10;99.90
32660;DHT22;19064;47.912;12.308;2024-01-15T06:40:19;-1.10;99.90
32660;DHT22;19064;47.912;12.308;2024-01-15T06:42:47;-1.20;99.90
32660;DHT22;19064;47.912;12.308;2024-01-15T06:45:14;-1.10;99.90
32660;DHT22;19064;47.912;12.308;2024-01-15T06:47:41;-1.20;99.90
32660;DHT22;19064;47.912;12.308;2024-01-15T06:50:08;-1.10;99.90
32660;DHT22;19064;47.912;12.308;2024-01-15T06:52:35;-1.10;99.90
32660;DHT22;19064;47.912;12.308;2024-01-15T06:55:02;-1.10;99.90
32660;DHT22;19064;47.912;12.308;2024-01-15T06:57:29;-1.10;99.90
32660;DHT22;19064;47.912;12.308;2024-01-15T06:59:57;-1.10;99.90
32660;DHT22;19064;47.912;12.308;2024-01-15T07:02:24;-1.10;99.90
32660;DHT22;19064;47.912;12.308;2024-01-15T07:04:52;-1.10;99.90
32660;DHT22;19064;47.912;12.308;2024-01-15T07:07:18;-1.20;99.90
32660;DHT22;19064;47.912;12.308;2024-01-15T07:09:45;-1.20;99.90
32660;DHT22;19064;47.912;12.308;2024-01-15T07:12:12;-1.10;99.90
32660;DHT22;19064;47.912;12.308;2024-01-15T07:14:39;-1.20;99.90
32660;DHT22;19064;47.912;12.308;2024-01-15T07:17:07;-1.10;99.90
32660;DHT22;19064;47.912;12.308;2024-01-15T07:19:34;-1.20;99.90
32660;DHT22;19064;47.912;12.308;2024-01-15T07:22:00;-1.20;99.90
32660;DHT22;19064;47.912;12.308;2024-01-15T07:24:27;-1.20;99.90
32660;DHT22;19064;47.912;12.308;2024-01-15T07:26:54;-1.20;99.90
32660;DHT22;19064;47.912;12.308;2024-01-15T07:29:20;-1.20;99.90
32660;DHT22;19064;47.912;12.308;2024-01-15T07:31:49;-1.20;99.90
32660;DHT22;19064;47.912;12.308;2024-01-15T07:34:17;-1.20;99.90
32660;DHT22;19064;47.912;12.308;2024-01-15T07:36:44;-1.20;99.90
32660;DHT22;19064;47.912;12.308;2024-01-15T07:39:11;-1.20;99.90
32660;DHT22;19064;47.912;12.308;2024-01-15T07:41:37;-1.20;99.90
32660;DHT22;19064;47.912;12.308;2024-01-15T07:44:04;-1.10;99.90
32660;DHT22;19064;47.912;12.308;2024-01-15T07:46:31;-1.20;99.90
32660;DHT22;19064;47.912;12.308;2024-01-15T07:48:58;-1.20;99.90
32660;DHT22;19064;47.912;12.308;2024-01-15T07:51:26;-1.20;99.90
32660;DHT22;19064;47.912;12.308;2024-01-15T07:53:53;-1.10;99.90
32660;DHT22;19064;47.912;12.308;2024-01-15T07:56:20;-1.10;99.90
32660;DHT22;19064;47.912;12.308;2024-01-15T07:58:47;-1.10;99.90
32660;DHT22;19064;47.912;12.308;2024-01-15T08:01:14;-1.10;99.90
32660;DHT22;19064;47.912;12.308;2024-01-15T08:03:41;-1.10;99.90
32660;DHT22;19064;47.912;12.308;2024-01-15T08:06:08;-1.20;99.90
32660;DHT22;19064;47.912;12.308;2024-01-15T08:08:37;-1.10;99.90
32660;DHT22;19064;47.912;12.308;2024-01-15T08:11:04;-1.10;99.90
32660;DHT22;19064;47.912;12.308;2024-01-15T08:13:31;-1.10;99.90
32660;DHT22;19064;47.912;12.308;2024-01-15T08:15:58;-1.20;99.90
32660;DHT22;19064;47.912;12.308;2024-01-15T08:18:25;-1.10;99.90
32660;DHT22;19064;47.912;12.308;2024-01-15T08:20:51;-1.20;99.90
32660;DHT22;19064;47.912;12.308;2024-01-15T08:23:19;-1.10;99.90
32660;DHT22;19064;47.912;12.308;2024-01-15T08:25:48;-1.10;99.90
32660;DHT22;19064;47.912;12.308;2024-01-15T08:28:16;-1.10;99.90
32660;DHT22;19064;47.912;12.308;2024-01-15T08:30:43;-1.10;99.90
32660;DHT22;19064;47.912;12.308;2024-01-15T08:33:09;-1.20;99.90
32660;DHT22;19064;47.912;12.308;2024-01-15T08:35:36;-1.20;99.90
32660;DHT22;19064;47.912;12.308;2024-01-15T08:38:03;-1.20;99.90
32660;DHT22;19064;47.912;12.308;2024-01-15T08:40:30;-1.10;99.90
32660;DHT22;19064;47.912;12.308;2024-01-15T08:42:58;-1.10;99.90
32660;DHT22;19064;47.912;12.308;2024-01-15T08:45:27;-1.10;99.90
32660;DHT22;19064;47.912;12.308;2024-01-15T08:47:54;-1.10;99.90
32660;DHT22;19064;47.912;12.308;2024-01-15T08:50:20;-1.10;99.90
32660;DHT22;19064;47.912;12.308;2024-01-15T08:52:47;-1.00;99.90
32660;DHT22;19064;47.912;12.308;2024-01-15T08:55:14;-1.00;99.90
32660;DHT22;19064;47.912;12.308;2024-01-15T08:57:41;-1.00;99.90
32660;DHT22;19064;47.912;12.308;2024-01-15T09:00:12;-1.00;99.90
32660;DHT22;19064;47.912;12.308;2024-01-15T09:02:39;-1.00;99.90
32660;DHT22;19064;47.912;12.308;2024-01-15T09:05:06;-1.00;99.90
32660;DHT22;19064;47.912;12.308;2024-01-15T09:07:33;-1.00;99.90
32660;DHT22;19064;47.912;12.308;2024-01-15T09:09:59;-1.00;99.90
32660;DHT22;19064;47.912;12.308;2024-01-15T09:12:27;-1.00;99.90
32660;DHT22;19064;47.912;12.308;2024-01-15T09:14:55;-1.00;99.90
32660;DHT22;19064;47.912;12.308;2024-01-15T09:17:23;-1.00;99.90
32660;DHT22;19064;47.912;12.308;2024-01-15T09:19:50;-1.10;99.90
32660;DHT22;19064;47.912;12.308;2024-01-15T09:22:16;-1.10;99.90
32660;DHT22;19064;47.912;12.308;2024-01-15T09:24:44;-1.10;99.90
32660;DHT22;19064;47.912;12.308;2024-01-15T09:27:11;-1.00;99.90
32660;DHT22;19064;47.912;12.308;2024-01-15T09:29:37;-1.10;99.90
32660;DHT22;19064;47.912;12.308;2024-01-15T09:32:06;-1.00;99.90
32660;DHT22;19064;47.912;12.308;2024-01-15T09:34:34;-1.00;99.90
32660;DHT22;19064;47.912;12.308;2024-01-15T09:37:02;-1.00;99.90
32660;DHT22;19064;47.912;12.308;2024-01-15T09:39:29;-0.90;99.90
32660;DHT22;19064;47.912;12.308;2024-01-15T09:41:57;-0.80;99.90
32660;DHT22;19064;47.912;12.308;2024-01-15T09:44:25;-0.80;99.90
32660;DHT22;19064;47.912;12.308;2024-01-15T09:46:53;-0.70;99.90
32660;DHT22;19064;47.912;12.308;2024-01-15T09:49:21;-0.70;99.90
32660;DHT22;19064;47.912;12.308;2024-01-15T09:51:50;-0.60;99.90
32660;DHT22;19064;47.912;12.308;2024-01-15T09:54:17;-0.60;99.90
32660;DHT22;19064;47.912;12.308;2024-01-15T09:56:45;-0.60;99.90
32660;DHT22;19064;47.912;12.308;2024-01-15T09:59:14;-0.50;99.90
32660;DHT22;19064;47.912;12.308;2024-01-15T10:01:43;-0.40;99.90
32660;DHT22;19064;47.912;12.308;2024-01-15T10:04:09;-0.40;99.90
32660;DHT22;19064;47.912;12.308;2024-01-15T10:06:38;-0.40;99.90
32660;DHT22;19064;47.912;12.308;2024-01-15T10:09:07;-0.40;99.90
32660;DHT22;19064;47.912;12.308;2024-01-15T10:11:34;-0.40;99.90
32660;DHT22;19064;47.912;12.308;2024-01-15T10:14:03;-0.40;99.90
32660;DHT22;19064;47.912;12.308;2024-01-15T10:16:31;-0.40;99.90
32660;DHT22;19064;47.912;12.308;2024-01-15T10:18:57;-0.40;99.90
32660;DHT22;19064;47.912;12.308;2024-01-15T10:21:24;-0.40;99.90
32660;DHT22;19064;47.912;12.308;2024-01-15T10:23:52;-0.30;99.90
32660;DHT22;19064;47.912;12.308;2024-01-15T10:26:24;-0.30;99.90
32660;DHT22;19064;47.912;12.308;2024-01-15T10:28:51;-0.30;99.90
32660;DHT22;19064;47.912;12.308;2024-01-15T10:31:18;-0.20;99.90
32660;DHT22;19064;47.912;12.308;2024-01-15T10:33:47;-0.10;99.90
32660;DHT22;19064;47.912;12.308;2024-01-15T10:36:15;0.00;99.90
32660;DHT22;19064;47.912;12.308;2024-01-15T10:38:43;0.10;99.90
32660;DHT22;19064;47.912;12.308;2024-01-15T10:41:10;0.10;99.90
32660;DHT22;19064;47.912;12.308;2024-01-15T10:43:39;-0.10;99.90
32660;DHT22;19064;47.912;12.308;2024-01-15T10:46:07;0.00;99.90
32660;DHT22;19064;47.912;12.308;2024-01-15T10:48:34;0.10;99.90
32660;DHT22;19064;47.912;12.308;2024-01-15T10:51:01;0.10;99.90
32660;DHT22;19064;47.912;12.308;2024-01-15T10:53:37;0.20;99.90
32660;DHT22;19064;47.912;12.308;2024-01-15T10:56:06;0.10;99.90
32660;DHT22;19064;47.912;12.308;2024-01-15T10:58:33;0.10;99.90
32660;DHT22;19064;47.912;12.308;2024-01-15T11:01:02;0.10;99.90
32660;DHT22;19064;47.912;12.308;2024-01-15T11:03:30;0.20;99.90
32660;DHT22;19064;47.912;12.308;2024-01-15T11:05:57;0.20;99.90
32660;DHT22;19064;47.912;12.308;2024-01-15T11:08:25;0.20;99.90
32660;DHT22;19064;47.912;12.308;2024-01-15T11:10:52;0.20;99.90
32660;DHT22;19064;47.912;12.308;2024-01-15T11:13:20;0.20;99.90
32660;DHT22;19064;47.912;12.308;2024-01-15T11:16:02;0.20;99.90
32660;DHT22;19064;47.912;12.308;2024-01-15T11:18:30;0.20;99.90
32660;DHT22;19064;47.912;12.308;2024-01-15T11:21:22;0.20;99.90
32660;DHT22;19064;47.912;12.308;2024-01-15T11:23:51;0.30;99.90
32660;DHT22;19064;47.912;12.308;2024-01-15T11:26:33;0.40;99.90
32660;DHT22;19064;47.912;12.308;2024-01-15T11:29:02;0.30;99.90
32660;DHT22;19064;47.912;12.308;2024-01-15T11:31:57;0.20;99.90
32660;DHT22;19064;47.912;12.308;2024-01-15T11:34:49;0.10;99.90
32660;DHT22;19064;47.912;12.308;2024-01-15T11:37:16;0.20;99.90
32660;DHT22;19064;47.912;12.308;2024-01-15T11:39:44;0.20;99.90
32660;DHT22;19064;47.912;12.308;2024-01-15T11:42:12;0.10;99.90
32660;DHT22;19064;47.912;12.308;2024-01-15T11:44:39;0.10;99.90
32660;DHT22;19064;47.912;12.308;2024-01-15T11:47:09;0.00;99.90
32660;DHT22;19064;47.912;12.308;2024-01-15T11:50:01;-0.20;99.90
32660;DHT22;19064;47.912;12.308;2024-01-15T11:52:33;-0.10;99.90
32660;DHT22;19064;47.912;12.308;2024-01-15T11:55:03;-0.10;99.90
32660;DHT22;19064;47.912;12.308;2024-01-15T11:57:40;0.00;99.90
32660;DHT22;19064;47.912;12.308;2024-01-15T12:00:09;-0.10;99.90
32660;DHT22;19064;47.912;12.308;2024-01-15T12:02:39;-0.10;99.90
32660;DHT22;19064;47.912;12.308;2024-01-15T12:05:06;-0.10;99.90
32660;DHT22;19064;47.912;12.308;2024-01-15T12:07:33;-0.10;99.90
32660;DHT22;19064;47.912;12.308;2024-01-15T12:10:00;-0.10;99.90
32660;DHT22;19064;47.912;12.308;2024-01-15T12:12:33;-0.10;99.90
32660;DHT22;19064;47.912;12.308;2024-01-15T12:15:03;-0.20;99.90
32660;DHT22;19064;47.912;12.308;2024-01-15T12:17:31;-0.20;99.90
32660;DHT22;19064;47.912;12.308;2024-01-15T12:19:59;-0.20;99.90
32660;DHT22;19064;47.912;12.308;2024-01-15T12:22:26;-0.20;99.90
32660;DHT22;19064;47.912;12.308;2024-01-15T12:24:53;-0.20;99.90
32660;DHT22;19064;47.912;12.308;2024-01-15T12:27:21;-0.20;99.90
32660;DHT22;19064;47.912;12.308;2024-01-15T12:29:47;-0.20;99.90
32660;DHT22;19064;47.912;12.308;2024-01-15T12:32:14;-0.10;99.90
32660;DHT22;19064;47.912;12.308;2024-01-15T12:34:41;-0.20;99.90
32660;DHT22;19064;47.912;12.308;2024-01-15T12:37:09;-0.30;99.90
32660;DHT22;19064;47.912;12.308;2024-01-15T12:39:37;-0.40;99.90
32660;DHT22;19064;47.912;12.308;2024-01-15T12:42:04;-0.40;99.90
32660;DHT22;19064;47.912;12.308;2024-01-15T12:44:32;-0.30;99.90
32660;DHT22;19064;47.912;12.308;2024-01-15T12:47:01;-0.20;99.90
32660;DHT22;19064;47.912;12.308;2024-01-15T12:49:28;-0.20;99.90
32660;DHT22;19064;47.912;12.308;2024-01-15T12:51:57;-0.20;99.90
32660;DHT22;19064;47.912;12.308;2024-01-15T12:54:26;-0.20;99.90
32660;DHT22;19064;47.912;12.308;2024-01-15T12:56:52;-0.10;99.90
32660;DHT22;19064;47.912;12.308;2024-01-15T12:59:19;-0.10;99.90
32660;DHT22;19064;47.912;12.308;2024-01-15T13:01:46;-0.10;99.90
32660;DHT22;19064;47.912;12.308;2024-01-15T13:04:21;0.00;99.90
32660;DHT22;19064;47.912;12.308;2024-01-15T13:06:48;0.00;99.90
32660;DHT22;19064;47.912;12.308;2024-01-15T13:09:16;0.10;99.90
32660;DHT22;19064;47.912;12.308;2024-01-15T13:11:44;0.10;99.90
32660;DHT22;19064;47.912;12.308;2024-01-15T13:14:11;0.10;99.90
32660;DHT22;19064;47.912;12.308;2024-01-15T13:16:39;0.10;99.90
32660;DHT22;19064;47.912;12.308;2024-01-15T13:19:07;0.10;99.90
32660;DHT22;19064;47.912;12.308;2024-01-15T13:21:34;0.20;99.90
32660;DHT22;19064;47.912;12.308;2024-01-15T13:24:00;0.10;99.90
32660;DHT22;19064;47.912;12.308;2024-01-15T13:26:28;0.10;99.90
32660;DHT22;19064;47.912;12.308;2024-01-15T13:28:56;0.10;99.90
32660;DHT22;19064;47.912;12.308;2024-01-15T13:31:23;0.10;99.90
32660;DHT22;19064;47.912;12.308;2024-01-15T13:33:50;0.10;99.90
32660;DHT22;19064;47.912;12.308;2024-01-15T13:36:17;0.20;99.90
32660;DHT22;19064;47.912;12.308;2024-01-15T13:38:47;0.20;99.90
32660;DHT22;19064;47.912;12.308;2024-01-15T13:41:14;0.20;99.90
32660;DHT22;19064;47.912;12.308;2024-01-15T13:43:41;0.30;99.90
32660;DHT22;19064;47.912;12.308;2024-01-15T13:46:09;0.20;99.90
32660;DHT22;19064;47.912;12.308;2024-01-15T13:48:36;0.30;99.90
32660;DHT22;19064;47.912;12.308;2024-01-15T13:51:03;0.20;99.90
32660;DHT22;19064;47.912;12.308;2024-01-15T13:53:30;0.30;99.90
32660;DHT22;19064;47.912;12.308;2024-01-15T13:55:57;0.30;99.90
32660;DHT22;19064;47.912;12.308;2024-01-15T13:58:24;0.30;99.90
32660;DHT22;19064;47.912;12.308;2024-01-15T14:00:51;0.30;99.90
32660;DHT22;19064;47.912;12.308;2024-01-15T14:03:19;0.30;99.90
32660;DHT22;19064;47.912;12.308;2024-01-15T14:05:46;0.20;99.90
32660;DHT22;19064;47.912;12.308;2024-01-15T14:08:13;0.20;99.90
32660;DHT22;19064;47.912;12.308;2024-01-15T14:10:39;0.20;99.90
32660;DHT22;19064;47.912;12.308;2024-01-15T14:13:06;0.20;99.90
32660;DHT22;19064;47.912;12.308;2024-01-15T14:15:34;0.20;99.90
32660;DHT22;19064;47.912;12.308;2024-01-15T14:18:01;0.20;99.90
32660;DHT22;19064;47.912;12.308;2024-01-15T14:20:29;0.20;99.90
32660;DHT22;19064;47.912;12.308;2024-01-15T14:22:56;0.20;99.90
32660;DHT22;19064;47.912;12.308;2024-01-15T14:25:23;0.20;99.90
32660;DHT22;19064;47.912;12.308;2024-01-15T14:27:50;0.20;99.90
32660;DHT22;19064;47.912;12.308;2024-01-15T14:30:17;0.20;99.90
32660;DHT22;19064;47.912;12.308;2024-01-15T14:32:44;0.20;99.90
32660;DHT22;19064;47.912;12.308;2024-01-15T14:35:10;0.20;99.90
32660;DHT22;19064;47.912;12.308;2024-01-15T14:37:40;0.30;99.90
32660;DHT22;19064;47.912;12.308;2024-01-15T14:40:07;0.30;99.90
32660;DHT22;19064;47.912;12.308;2024-01-15T14:42:35;0.20;99.90
32660;DHT22;19064;47.912;12.308;2024-01-15T14:45:02;0.20;99.90
32660;DHT22;19064;47.912;12.308;2024-01-15T14:47:34;0.20;99.90
32660;DHT22;19064;47.912;12.308;2024-01-15T14:50:01;0.20;99.90
32660;DHT22;19064;47.912;12.308;2024-01-15T14:52:29;0.20;99.90
32660;DHT22;19064;47.912;12.308;2024-01-15T14:54:57;0.20;99.90
32660;DHT22;19064;47.912;12.308;2024-01-15T14:57:23;0.20;99.90
32660;DHT22;19064;47.912;12.308;2024-01-15T14:59:50;0.20;99.90
32660;DHT22;19064;47.912;12.308;2024-01-15T15:02:18;0.20;99.90
32660;DHT22;19064;47.912;12.308;2024-01-15T15:04:45;0.10;99.90
32660;DHT22;19064;47.912;12.308;2024-01-15T15:07:12;0.10;99.90
32660;DHT22;19064;47.912;12.308;2024-01-15T15:09:39;0.10;99.90
32660;DHT22;19064;47.912;12.308;2024-01-15T15:12:08;0.10;99.90
32660;DHT22;19064;47.912;12.308;2024-01-15T15:14:35;0.10;99.90
32660;DHT22;19064;47.912;12.308;2024-01-15T15:17:04;0.10;99.90
32660;DHT22;19064;47.912;12.308;2024-01-15T15:19:31;0.10;99.90
32660;DHT22;19064;47.912;12.308;2024-01-15T15:21:58;0.10;99.90